Melbourne International Airport
KMLB : now visible

Airfield :











YOU CAN JOIN US ON...

 
LOGIN :

Register | Disclaimer

   EN    FR    IT 

 









Legend :    VFR   Marginal VFR   IFR   Intensive IFR   Very Intensive IFR
Visi :
Ceiling :
>= 8 km
>= 3000ft
5 to 8 km
1000 to 3000 ft
1500m to 5 km
500 to 1000 ft
800 to 1500m
200 to 500 ft
< 800m
< 200 ft
Symbols :   Thunderstorms  Fog  Heavy snow  Heavy precipitations  Wind > 20 kt






- Airport Elevation : 33 ft
- IATA code : MLB


KMLB - Melbourne International

CURRENT METAR :
  • 121913Z 07011KT 2 1/2SM RA BR BKN008 BKN046 OVC055 22/21 A3019 RMK AO2 P0003 T02220211

EXPIRED METARs :
  • 121906Z 06011KT 2 1/2SM RA BR FEW009 BKN046 OVC055 22/21 A3018 RMK AO2 P0002 T02170211
  • 121853Z COR 06012KT 2 1/2SM RA BR BKN008 BKN019 OVC060 22/21 A3018 RMK AO2 SLP219 P0025 T02170206
  • 121834Z 06015KT 1 1/4SM +RA BR FEW008 BKN020 OVC039 22/21 A3019 RMK AO2 P0018 T02170206
  • 121807Z 06016KT 2SM +RA BR FEW024 BKN070 OVC080 22/21 A3020 RMK AO2 P0004 T02170206
  • 121753Z 06014G22KT 4SM RA BR FEW041 BKN049 OVC065 22/21 A3020 RMK AO2 SLP225 P0002 60021 T02170206 10250 20217 58020
  • 121653Z 07014G21KT 5SM -RA BR FEW017 BKN036 OVC060 23/21 A3023 RMK AO2 PK WND 07026/1627 RAB07 SLP235 P0013 T02280211
  • 121629Z 07020G26KT 1 1/2SM +RA BR FEW018 BKN025 OVC038 22/20 A3024 RMK AO2 PK WND 07026/1627 RAB07 P0007 T02170200

TAF KMLB
Valid from the 12 at 19:00 until the 13 at 18:00 UTC


121917Z 1219/1318 07012G18KT 3SM RA BR SCT010 BKN040 OVC060
TEMPO 1219/1221 1SM RA BR BKN008 OVC015
FM122100 07013G20KT 5SM -RA SCT015 BKN025 OVC050
TEMPO 1221/1224 2SM RA BR BKN010 OVC020
FM130200 10011KT P6SM VCSH SCT020 BKN040 OVC060
FM130800 13006KT P6SM FEW030 BKN060 OVC120
FM131400 17008KT P6SM SCT030 BKN050 OVC100



MET'MAP, your aeronautical weather chart ! - Copyright ORBIFLY December 2007 - Disclaimer

ORBIFLY MET'MAP TEAM :

Programming & Development : Alexandra Zaïnal
Concept & original design : Baudouin d'Aumeries
Assistance for programming : Marc-Olivier Méhu
Technical & hardware support : Manuel Goepfert

Contact : metmap@orbifly.com




SOURCES & CREDITS :

   NOAA       Earth
Advisory